createdAt,value
2023-11-22T00:12:38.691Z,4.6
2023-11-22T00:32:43.194Z,4.5
2023-11-22T00:52:47.869Z,4.5
2023-11-22T01:53:00.068Z,3.3
2023-11-22T02:03:02.750Z,3.1
2023-11-22T02:13:04.302Z,3
2023-11-22T02:23:06.615Z,2.9
2023-11-22T02:33:08.917Z,2.8
2023-11-22T02:43:11.315Z,2.6
2023-11-22T02:53:13.051Z,2.6
2023-11-22T03:03:15.400Z,2.4
2023-11-22T03:13:17.753Z,2.4
2023-11-22T03:23:19.839Z,2
2023-11-22T03:33:22.103Z,1.9
2023-11-22T03:43:24.503Z,1.7
2023-11-22T04:03:28.913Z,1.6
2023-11-22T04:23:32.621Z,1
2023-11-22T05:03:40.109Z,0.4
2023-11-22T05:43:49.705Z,0.1
2023-11-22T06:03:53.602Z,-0.2
2023-11-22T06:13:55.518Z,-0.3
2023-11-22T06:23:57.975Z,-0.5
2023-11-22T06:34:00.214Z,-0.8
2023-11-22T06:54:04.523Z,-1.1
2023-11-22T07:04:06.838Z,-0.8
2023-11-22T07:14:08.568Z,-1.2
2023-11-22T07:24:10.803Z,-1
2023-11-22T07:34:13.212Z,-0.9
2023-11-22T07:54:18.409Z,-0.6
2023-11-22T08:54:32.922Z,1.9
2023-11-22T09:14:35.432Z,2
2023-11-22T09:24:37.728Z,2.2
2023-11-22T09:34:40.055Z,2.5
2023-11-22T09:44:42.446Z,2.6
2023-11-22T09:54:45.101Z,2.7
2023-11-22T10:14:49.325Z,2.8
2023-11-22T10:34:53.868Z,3.3
2023-11-22T10:54:57.776Z,3.4
2023-11-22T11:05:00.279Z,3.5
2023-11-22T11:35:07.501Z,4
2023-11-22T11:45:09.559Z,4.1
2023-11-22T12:05:14.054Z,3.9
2023-11-22T12:25:18.476Z,5.7
2023-11-22T12:45:23.057Z,4.9
2023-11-22T13:05:27.247Z,4.6
2023-11-22T13:25:31.198Z,4.9
2023-11-22T13:45:37.453Z,4.8
2023-11-22T13:55:38.321Z,4.7
2023-11-22T14:05:40.662Z,4.7
2023-11-22T14:15:42.949Z,4.7
2023-11-22T14:25:45.447Z,4.7
2023-11-22T14:35:48.087Z,4.6
2023-11-22T14:45:49.844Z,4.5
2023-11-22T14:55:52.155Z,4.5
2023-11-22T15:05:54.361Z,4.4
2023-11-22T15:15:56.503Z,4.4
2023-11-22T15:25:59.030Z,4.4
2023-11-22T15:36:01.746Z,4.3
2023-11-22T15:46:03.373Z,4.2
2023-11-22T15:56:05.667Z,4.3
2023-11-22T16:06:07.912Z,4.3
2023-11-22T16:16:10.314Z,4.3
2023-11-22T16:26:12.931Z,4.3
2023-11-22T16:36:14.925Z,4.5
2023-11-22T16:46:17.200Z,4.5
2023-11-22T16:56:19.773Z,4.5
2023-11-22T17:06:22.088Z,4.6
2023-11-22T17:16:24.399Z,4.5
2023-11-22T17:26:26.125Z,4.5
2023-11-22T17:36:27.878Z,4.5
2023-11-22T17:46:30.091Z,4.6
2023-11-22T17:56:32.077Z,4.6
2023-11-22T18:06:34.396Z,4.5
2023-11-22T18:16:36.351Z,4.3
2023-11-22T18:26:38.416Z,4.2
2023-11-22T18:36:40.352Z,4.2
2023-11-22T18:46:42.398Z,4.1
2023-11-22T18:56:45.234Z,4.1
2023-11-22T19:06:46.826Z,4.1
2023-11-22T19:16:49.362Z,4.3
2023-11-22T19:26:51.761Z,4.4
2023-11-22T19:36:56.236Z,4.4
2023-11-22T19:46:56.490Z,4.5
2023-11-22T19:56:58.869Z,4.6
2023-11-22T20:17:02.706Z,4.7
2023-11-22T20:27:05.087Z,4.7
2023-11-22T20:37:07.579Z,4.7
2023-11-22T20:57:12.027Z,4.6
2023-11-22T21:07:20.992Z,4.7
2023-11-22T21:17:22.998Z,4.7
2023-11-22T21:27:25.245Z,4.8
2023-11-22T21:57:31.949Z,5.1
2023-11-22T22:27:38.778Z,5.2
2023-11-22T22:47:43.433Z,5.5
2023-11-22T23:07:47.993Z,5.7
